Time;durP1;ratioP1;P1;durP2;ratioP2;P2;SDS_P1;SDS_P2;PMS_P1;PMS_P2;Temp;Humidity;BMP_temperature;BMP_pressure;BME280_temperature;BME280_humidity;BME280_pressure;Samples;Min_cycle;Max_cycle;Signal;HPM_P1;HPM_P2
2021/03/22 00:00:44;;;;;;;22.30;6.60;;;;;;;;;;5028040;28;20206;-67
2021/03/22 00:03:10;;;;;;;15.33;5.20;;;;;;;;;;5024006;28;25558;-69
2021/03/22 00:05:35;;;;;;;18.93;5.53;;;;;;;;;;5023695;28;20189;-68
2021/03/22 00:08:01;;;;;;;22.43;6.20;;;;;;;;;;5034899;28;20173;-68
2021/03/22 00:10:28;;;;;;;15.10;7.40;;;;;;;;;;5024818;28;20287;-68
2021/03/22 00:12:54;;;;;;;18.07;5.97;;;;;;;;;;5028565;28;20239;-68
2021/03/22 00:15:20;;;;;;;22.53;6.57;;;;;;;;;;5021998;28;20190;-67
2021/03/22 00:17:45;;;;;;;20.13;5.97;;;;;;;;;;5023132;28;20240;-69
2021/03/22 00:20:12;;;;;;;22.87;7.00;;;;;;;;;;5023216;28;20202;-68
2021/03/22 00:22:37;;;;;;;16.43;6.20;;;;;;;;;;5026235;28;20194;-69
2021/03/22 00:25:03;;;;;;;20.60;6.40;;;;;;;;;;5023750;28;20686;-69
2021/03/22 00:27:28;;;;;;;12.93;5.07;;;;;;;;;;5026706;28;20312;-68
2021/03/22 00:29:53;;;;;;;19.17;6.13;;;;;;;;;;5022483;28;20790;-68
2021/03/22 00:32:18;;;;;;;19.53;7.13;;;;;;;;;;5035834;28;20244;-68
2021/03/22 00:34:44;;;;;;;23.77;7.73;;;;;;;;;;5039774;28;20568;-69
2021/03/22 00:37:09;;;;;;;17.57;7.77;;;;;;;;;;5046273;28;20311;-68
2021/03/22 00:39:34;;;;;;;14.03;6.47;;;;;;;;;;5028330;28;20601;-69
2021/03/22 00:41:59;;;;;;;18.13;6.37;;;;;;;;;;5036702;28;20177;-69
2021/03/22 00:44:24;;;;;;;16.10;6.13;;;;;;;;;;5034918;28;20545;-69
2021/03/22 00:46:50;;;;;;;16.20;6.47;;;;;;;;;;5036672;28;20318;-69
2021/03/22 00:49:15;;;;;;;17.17;6.57;;;;;;;;;;5040258;28;20198;-69
2021/03/22 00:51:41;;;;;;;20.70;6.80;;;;;;;;;;5040177;28;20643;-69
2021/03/22 00:54:06;;;;;;;13.47;5.53;;;;;;;;;;5036273;28;20177;-68
2021/03/22 00:56:31;;;;;;;21.57;6.87;;;;;;;;;;5038920;28;20562;-68
2021/03/22 00:58:56;;;;;;;14.13;7.10;;;;;;;;;;5037860;28;20177;-68
2021/03/22 01:01:21;;;;;;;19.83;6.63;;;;;;;;;;5041904;28;20205;-68
2021/03/22 01:03:47;;;;;;;20.73;6.90;;;;;;;;;;5040858;28;20186;-68
2021/03/22 01:06:12;;;;;;;22.20;8.53;;;;;;;;;;5046558;28;20174;-69
2021/03/22 01:08:38;;;;;;;18.90;7.43;;;;;;;;;;5042235;28;20299;-69
2021/03/22 01:11:05;;;;;;;22.80;7.77;;;;;;;;;;5045450;28;20675;-69
2021/03/22 01:13:34;;;;;;;26.50;7.70;;;;;;;;;;5038399;28;20185;-68
2021/03/22 01:16:00;;;;;;;20.40;7.23;;;;;;;;;;5046179;28;20671;-69
2021/03/22 01:18:30;;;;;;;25.93;8.60;;;;;;;;;;5047478;28;20166;-68
2021/03/22 01:20:58;;;;;;;22.63;8.10;;;;;;;;;;5042351;28;20202;-67
2021/03/22 01:23:23;;;;;;;23.63;7.83;;;;;;;;;;5040463;28;20182;-69
2021/03/22 01:25:49;;;;;;;24.80;8.17;;;;;;;;;;5045430;28;20177;-68
2021/03/22 01:28:15;;;;;;;25.80;8.30;;;;;;;;;;5037511;28;20555;-69
2021/03/22 01:30:43;;;;;;;22.67;7.37;;;;;;;;;;5042064;28;20198;-69
2021/03/22 01:33:12;;;;;;;25.07;9.57;;;;;;;;;;5050741;28;20694;-68
2021/03/22 01:35:37;;;;;;;19.10;7.83;;;;;;;;;;5042543;28;20236;-68
2021/03/22 01:38:03;;;;;;;24.33;7.73;;;;;;;;;;5048781;28;20174;-69
2021/03/22 01:40:38;;;;;;;20.70;7.73;;;;;;;;;;5049194;28;20296;-68
2021/03/22 01:43:10;;;;;;;24.30;8.17;;;;;;;;;;5049619;28;20189;-68
2021/03/22 01:45:36;;;;;;;25.23;7.47;;;;;;;;;;5051502;28;20195;-68
2021/03/22 01:48:01;;;;;;;22.07;7.77;;;;;;;;;;5051167;28;20185;-68
2021/03/22 01:50:28;;;;;;;30.70;8.43;;;;;;;;;;5055156;28;20617;-69
2021/03/22 01:52:54;;;;;;;25.50;8.27;;;;;;;;;;5051955;28;20178;-68
2021/03/22 01:55:20;;;;;;;27.30;7.77;;;;;;;;;;5053430;28;20173;-69
2021/03/22 01:57:46;;;;;;;24.93;8.20;;;;;;;;;;5051259;28;20247;-68
2021/03/22 02:00:19;;;;;;;21.93;7.87;;;;;;;;;;5051064;28;20627;-67
2021/03/22 02:02:45;;;;;;;23.50;7.60;;;;;;;;;;5043546;28;20603;-69
2021/03/22 02:05:12;;;;;;;28.77;8.77;;;;;;;;;;5050734;28;20587;-69
2021/03/22 02:07:38;;;;;;;28.73;9.57;;;;;;;;;;5049677;28;20210;-69
2021/03/22 02:10:04;;;;;;;31.20;8.50;;;;;;;;;;5045858;28;20240;-67
2021/03/22 02:12:29;;;;;;;32.93;8.23;;;;;;;;;;5048540;28;20184;-69
2021/03/22 02:14:55;;;;;;;32.83;9.40;;;;;;;;;;5046681;28;20170;-69
2021/03/22 02:17:28;;;;;;;29.80;9.70;;;;;;;;;;5050492;28;20185;-69
2021/03/22 02:20:11;;;;;;;49.13;8.80;;;;;;;;;;5048418;28;20205;-69
2021/03/22 02:22:37;;;;;;;25.40;8.83;;;;;;;;;;5034246;28;20189;-68
2021/03/22 02:25:14;;;;;;;41.60;10.50;;;;;;;;;;5048921;28;20181;-69
2021/03/22 02:27:51;;;;;;;22.07;9.27;;;;;;;;;;5051344;28;20185;-69
2021/03/22 02:30:48;;;;;;;31.03;9.47;;;;;;;;;;5051571;28;20651;-69
2021/03/22 02:33:13;;;;;;;26.80;8.50;;;;;;;;;;5048212;28;20194;-68
2021/03/22 02:35:52;;;;;;;25.55;8.38;;;;;;;;;;5045927;28;20639;-67
2021/03/22 02:38:20;;;;;;;28.40;8.83;;;;;;;;;;5044343;28;20300;-67
2021/03/22 02:40:51;;;;;;;25.77;8.93;;;;;;;;;;5045070;28;20232;-66
2021/03/22 02:43:16;;;;;;;24.53;8.07;;;;;;;;;;5044621;28;20273;-67
2021/03/22 02:45:42;;;;;;;18.20;7.03;;;;;;;;;;5046906;28;20253;-67
2021/03/22 02:48:12;;;;;;;22.43;8.67;;;;;;;;;;5046362;28;20503;-68
2021/03/22 02:50:39;;;;;;;27.67;7.63;;;;;;;;;;5049130;28;20237;-66
2021/03/22 02:53:18;;;;;;;23.23;8.87;;;;;;;;;;5050518;28;20540;-68
2021/03/22 02:55:46;;;;;;;23.07;8.70;;;;;;;;;;5047960;28;20256;-67
2021/03/22 02:58:13;;;;;;;28.77;9.63;;;;;;;;;;5048101;28;20173;-68
2021/03/22 03:00:41;;;;;;;21.97;8.70;;;;;;;;;;5049186;28;20208;-68
2021/03/22 03:03:10;;;;;;;30.40;8.40;;;;;;;;;;5050350;28;20188;-67
2021/03/22 03:05:35;;;;;;;29.13;8.27;;;;;;;;;;5050735;28;20200;-67
2021/03/22 03:08:02;;;;;;;29.53;7.63;;;;;;;;;;5042659;28;20263;-67
2021/03/22 03:10:27;;;;;;;23.80;9.87;;;;;;;;;;5047505;28;20221;-67
2021/03/22 03:12:53;;;;;;;19.23;7.73;;;;;;;;;;5048674;28;20699;-68
2021/03/22 03:15:18;;;;;;;20.53;7.43;;;;;;;;;;5046339;28;20185;-68
2021/03/22 03:17:44;;;;;;;29.73;8.43;;;;;;;;;;5047455;28;20178;-69
2021/03/22 03:20:13;;;;;;;31.40;8.27;;;;;;;;;;5050395;28;20276;-69
2021/03/22 03:22:40;;;;;;;25.50;7.90;;;;;;;;;;5053705;28;20731;-68
2021/03/22 03:25:06;;;;;;;26.37;8.73;;;;;;;;;;5048036;28;20174;-68
2021/03/22 03:27:31;;;;;;;26.60;7.80;;;;;;;;;;5046849;28;20236;-68
2021/03/22 03:29:57;;;;;;;22.13;8.10;;;;;;;;;;5041459;28;20757;-67
2021/03/22 03:32:23;;;;;;;22.47;7.80;;;;;;;;;;5047289;28;20208;-67
2021/03/22 03:34:48;;;;;;;26.43;7.80;;;;;;;;;;5047269;28;20185;-67
2021/03/22 03:37:13;;;;;;;33.23;9.90;;;;;;;;;;5050422;28;20215;-69
2021/03/22 03:39:39;;;;;;;39.37;8.43;;;;;;;;;;5050899;28;20712;-67
2021/03/22 03:42:05;;;;;;;29.57;8.80;;;;;;;;;;5049019;28;20182;-68
2021/03/22 03:44:31;;;;;;;29.47;8.70;;;;;;;;;;5047480;28;20196;-67
2021/03/22 03:46:56;;;;;;;22.87;6.97;;;;;;;;;;5047280;28;20177;-67
2021/03/22 03:49:21;;;;;;;24.23;8.63;;;;;;;;;;5036452;28;20285;-67
2021/03/22 03:51:46;;;;;;;25.97;8.50;;;;;;;;;;5047797;28;20173;-67
2021/03/22 03:54:12;;;;;;;23.33;7.50;;;;;;;;;;5050266;28;20188;-66
2021/03/22 03:56:37;;;;;;;41.27;9.50;;;;;;;;;;5050714;28;20592;-67
2021/03/22 03:59:03;;;;;;;18.10;8.07;;;;;;;;;;5050942;28;20213;-67
2021/03/22 04:01:28;;;;;;;22.17;7.10;;;;;;;;;;5047883;28;20562;-67
2021/03/22 04:03:54;;;;;;;26.87;7.83;;;;;;;;;;5050087;28;20182;-67
2021/03/22 04:06:30;;;;;;;20.90;7.03;;;;;;;;;;5040406;28;20179;-66
2021/03/22 04:08:56;;;;;;;25.57;7.37;;;;;;;;;;5046210;28;20197;-66
2021/03/22 04:11:23;;;;;;;23.83;7.50;;;;;;;;;;5045073;28;20212;-67
2021/03/22 04:13:49;;;;;;;23.77;7.23;;;;;;;;;;5050507;28;20259;-67
2021/03/22 04:16:15;;;;;;;27.07;6.60;;;;;;;;;;5042214;28;20256;-67
2021/03/22 04:18:40;;;;;;;27.03;7.57;;;;;;;;;;5049468;28;20181;-67
2021/03/22 04:21:07;;;;;;;22.23;6.83;;;;;;;;;;5048387;28;20574;-67
2021/03/22 04:23:33;;;;;;;17.47;7.00;;;;;;;;;;5046418;28;20186;-67
2021/03/22 04:25:59;;;;;;;21.47;7.13;;;;;;;;;;5051101;28;20760;-67
2021/03/22 04:28:24;;;;;;;23.17;7.00;;;;;;;;;;5048497;28;20185;-67
2021/03/22 04:30:49;;;;;;;25.50;8.43;;;;;;;;;;5037436;28;20205;-66
2021/03/22 04:33:15;;;;;;;21.77;6.73;;;;;;;;;;5047218;28;20197;-67
2021/03/22 04:35:40;;;;;;;20.77;6.73;;;;;;;;;;5048968;28;20174;-67
2021/03/22 04:38:05;;;;;;;25.80;7.40;;;;;;;;;;5049419;28;20177;-67
2021/03/22 04:40:30;;;;;;;20.60;6.37;;;;;;;;;;5047361;28;20566;-67
2021/03/22 04:42:56;;;;;;;17.60;6.80;;;;;;;;;;5047936;28;20265;-68
2021/03/22 04:45:27;;;;;;;20.37;7.17;;;;;;;;;;5049832;28;20181;-67
2021/03/22 04:47:52;;;;;;;20.27;6.17;;;;;;;;;;5046186;28;20259;-67
2021/03/22 04:50:19;;;;;;;17.97;6.17;;;;;;;;;;5042098;28;20706;-67
2021/03/22 04:52:44;;;;;;;30.07;7.17;;;;;;;;;;5048610;28;20185;-67
2021/03/22 04:55:09;;;;;;;16.67;6.10;;;;;;;;;;5046665;28;20174;-66
2021/03/22 04:57:35;;;;;;;23.50;6.73;;;;;;;;;;5048427;28;20524;-67
2021/03/22 05:00:02;;;;;;;24.73;6.87;;;;;;;;;;5045262;28;20284;-67
2021/03/22 05:02:27;;;;;;;19.23;5.60;;;;;;;;;;5045345;28;20239;-67
2021/03/22 05:04:52;;;;;;;21.40;5.93;;;;;;;;;;5043763;28;20651;-66
2021/03/22 05:07:18;;;;;;;20.13;7.60;;;;;;;;;;5053496;28;20261;-67
2021/03/22 05:09:44;;;;;;;18.33;5.53;;;;;;;;;;5047259;28;20227;-67
2021/03/22 05:12:10;;;;;;;20.50;6.30;;;;;;;;;;5052016;28;20572;-67
2021/03/22 05:14:35;;;;;;;16.77;5.90;;;;;;;;;;5042398;28;20718;-67
2021/03/22 05:17:01;;;;;;;20.17;6.47;;;;;;;;;;5052144;28;20539;-67
2021/03/22 05:19:26;;;;;;;17.77;4.70;;;;;;;;;;5049637;28;20579;-67
2021/03/22 05:21:54;;;;;;;14.83;5.50;;;;;;;;;;5047023;28;20177;-67
2021/03/22 05:24:19;;;;;;;26.00;5.87;;;;;;;;;;5047561;28;20614;-67
2021/03/22 05:26:44;;;;;;;19.60;5.83;;;;;;;;;;5051549;28;20206;-67
2021/03/22 05:29:10;;;;;;;19.73;5.33;;;;;;;;;;5053327;28;20208;-67
2021/03/22 05:31:35;;;;;;;21.83;6.47;;;;;;;;;;5052782;28;20181;-67
2021/03/22 05:34:00;;;;;;;25.37;7.07;;;;;;;;;;5050826;28;20254;-67
2021/03/22 05:36:26;;;;;;;19.80;6.37;;;;;;;;;;5052544;28;20655;-67
2021/03/22 05:38:51;;;;;;;19.87;6.63;;;;;;;;;;5053168;28;20252;-67
2021/03/22 05:41:18;;;;;;;25.87;7.40;;;;;;;;;;5052072;28;20284;-67
2021/03/22 05:43:50;;;;;;;18.83;7.13;;;;;;;;;;5050405;28;20231;-66
2021/03/22 05:46:27;;;;;;;16.63;6.80;;;;;;;;;;5047048;28;20177;-67
2021/03/22 05:48:55;;;;;;;19.40;6.23;;;;;;;;;;5050627;28;20235;-67
2021/03/22 05:51:39;;;;;;;17.30;6.63;;;;;;;;;;5054322;28;20198;-67
2021/03/22 05:54:10;;;;;;;20.37;5.87;;;;;;;;;;5049708;28;20642;-67
2021/03/22 05:56:47;;;;;;;17.27;6.30;;;;;;;;;;5054978;28;20729;-67
2021/03/22 05:59:22;;;;;;;18.00;6.23;;;;;;;;;;5051022;28;20650;-67
2021/03/22 06:01:49;;;;;;;16.80;5.17;;;;;;;;;;5048098;28;20991;-67
2021/03/22 06:04:19;;;;;;;16.07;5.27;;;;;;;;;;5047234;28;20197;-68
2021/03/22 06:06:46;;;;;;;18.93;6.27;;;;;;;;;;5046843;28;20182;-67
2021/03/22 06:09:30;;;;;;;17.57;5.40;;;;;;;;;;5046175;28;20216;-68
2021/03/22 06:11:58;;;;;;;18.70;5.23;;;;;;;;;;5050290;28;20192;-67
2021/03/22 06:14:38;;;;;;;21.63;6.17;;;;;;;;;;5048809;28;20182;-67
2021/03/22 06:17:24;;;;;;;17.30;5.33;;;;;;;;;;5050496;28;20607;-68
2021/03/22 06:19:53;;;;;;;12.93;4.63;;;;;;;;;;5042685;28;20244;-68
2021/03/22 06:22:20;;;;;;;19.37;5.17;;;;;;;;;;5052888;28;20181;-68
2021/03/22 06:24:46;;;;;;;17.60;5.80;;;;;;;;;;5049815;28;20213;-67
2021/03/22 06:27:11;;;;;;;23.10;5.63;;;;;;;;;;5049613;28;20256;-68
2021/03/22 06:29:38;;;;;;;18.10;6.90;;;;;;;;;;5049052;28;20209;-68
2021/03/22 06:32:03;;;;;;;17.77;5.27;;;;;;;;;;5048893;28;20197;-68
2021/03/22 06:34:40;;;;;;;17.83;5.70;;;;;;;;;;5046661;28;20174;-68
2021/03/22 06:37:05;;;;;;;13.97;4.67;;;;;;;;;;5049254;28;20256;-67
2021/03/22 06:39:31;;;;;;;14.77;5.20;;;;;;;;;;5036978;28;20648;-67
2021/03/22 06:41:56;;;;;;;15.57;4.87;;;;;;;;;;5046922;28;20184;-68
2021/03/22 06:44:33;;;;;;;19.00;3.93;;;;;;;;;;5049140;28;20178;-68
2021/03/22 06:47:13;;;;;;;11.67;3.90;;;;;;;;;;5050283;28;20196;-68
2021/03/22 06:49:46;;;;;;;11.93;5.50;;;;;;;;;;5050255;28;20297;-68
2021/03/22 06:52:13;;;;;;;13.63;3.93;;;;;;;;;;5051030;28;20182;-67
2021/03/22 06:54:41;;;;;;;18.10;4.50;;;;;;;;;;5047538;28;20263;-67
2021/03/22 06:57:06;;;;;;;15.43;4.53;;;;;;;;;;5049250;28;20209;-67
2021/03/22 06:59:32;;;;;;;11.13;4.20;;;;;;;;;;5044110;28;20233;-67
2021/03/22 07:02:09;;;;;;;15.40;5.27;;;;;;;;;;5041820;28;20182;-67
2021/03/22 07:04:37;;;;;;;19.57;4.37;;;;;;;;;;5045936;28;20185;-68
2021/03/22 07:07:09;;;;;;;14.83;4.63;;;;;;;;;;5038908;28;20213;-67
2021/03/22 07:09:36;;;;;;;13.90;5.10;;;;;;;;;;5049190;28;20209;-67
2021/03/22 07:12:05;;;;;;;10.20;3.87;;;;;;;;;;5036780;28;20677;-67
2021/03/22 07:14:30;;;;;;;16.73;4.30;;;;;;;;;;5051829;28;20626;-67
2021/03/22 07:17:22;;;;;;;9.43;3.83;;;;;;;;;;5051569;28;20238;-68
2021/03/22 07:20:06;;;;;;;15.83;4.63;;;;;;;;;;5050021;28;20334;-68
2021/03/22 07:22:33;;;;;;;11.03;3.67;;;;;;;;;;5045557;28;20210;-67
2021/03/22 07:25:01;;;;;;;14.47;3.57;;;;;;;;;;5052005;28;20201;-67
2021/03/22 07:27:36;;;;;;;14.80;3.27;;;;;;;;;;5050034;28;20189;-68
2021/03/22 07:30:04;;;;;;;7.47;2.80;;;;;;;;;;5040669;28;20219;-67
2021/03/22 07:32:46;;;;;;;8.40;3.33;;;;;;;;;;5047370;28;20207;-67
2021/03/22 07:35:23;;;;;;;9.80;3.40;;;;;;;;;;5048478;28;20177;-70
2021/03/22 07:38:01;;;;;;;4.83;2.70;;;;;;;;;;5051602;28;20634;-66
2021/03/22 07:40:44;;;;;;;6.00;2.00;;;;;;;;;;5048389;28;20390;-69
2021/03/22 07:43:34;;;;;;;10.93;2.70;;;;;;;;;;5037517;28;20240;-67
2021/03/22 07:46:12;;;;;;;8.37;1.93;;;;;;;;;;5039570;28;20530;-67
2021/03/22 07:48:48;;;;;;;6.13;2.10;;;;;;;;;;5040943;28;20205;-67
2021/03/22 07:51:25;;;;;;;9.47;2.77;;;;;;;;;;5044499;28;20435;-67
2021/03/22 07:54:02;;;;;;;5.10;1.90;;;;;;;;;;5046182;28;20269;-67
2021/03/22 07:56:27;;;;;;;7.37;2.37;;;;;;;;;;5042159;28;20181;-67
2021/03/22 07:59:15;;;;;;;4.63;2.70;;;;;;;;;;5041002;28;20191;-67
2021/03/22 08:01:56;;;;;;;5.30;2.00;;;;;;;;;;5033560;28;20296;-68
2021/03/22 08:04:55;;;;;;;6.20;2.33;;;;;;;;;;5036380;28;20659;-67
2021/03/22 08:07:38;;;;;;;5.40;2.60;;;;;;;;;;5039942;28;20198;-68
2021/03/22 08:10:12;;;;;;;7.83;2.47;;;;;;;;;;5035491;28;20638;-68
2021/03/22 08:12:41;;;;;;;6.20;2.40;;;;;;;;;;5038045;28;20186;-67
2021/03/22 08:15:12;;;;;;;7.10;2.70;;;;;;;;;;5037905;28;20193;-66
2021/03/22 08:17:40;;;;;;;8.97;2.23;;;;;;;;;;5038357;28;20444;-68
2021/03/22 08:20:11;;;;;;;4.53;1.90;;;;;;;;;;5035253;28;20232;-67
2021/03/22 08:22:43;;;;;;;5.63;2.07;;;;;;;;;;5039957;28;20190;-68
2021/03/22 08:25:11;;;;;;;4.80;1.87;;;;;;;;;;5042791;28;20193;-68
2021/03/22 08:27:38;;;;;;;5.57;1.60;;;;;;;;;;5038987;28;20240;-69
2021/03/22 08:30:07;;;;;;;4.07;1.70;;;;;;;;;;5038523;28;20212;-68
2021/03/22 08:32:32;;;;;;;2.60;1.60;;;;;;;;;;5034742;28;20562;-66
2021/03/22 08:35:05;;;;;;;6.97;1.90;;;;;;;;;;5036524;28;20236;-68
2021/03/22 08:37:49;;;;;;;3.70;1.43;;;;;;;;;;5039658;28;20468;-68
2021/03/22 08:40:20;;;;;;;2.73;1.10;;;;;;;;;;5038960;28;20206;-68
2021/03/22 08:42:48;;;;;;;7.07;1.53;;;;;;;;;;5038451;28;20221;-67
2021/03/22 08:45:48;;;;;;;3.17;1.10;;;;;;;;;;5037274;28;20205;-67
2021/03/22 08:48:18;;;;;;;5.63;1.40;;;;;;;;;;5040542;28;20193;-66
2021/03/22 08:50:43;;;;;;;4.33;1.33;;;;;;;;;;5041839;28;20228;-66
2021/03/22 08:53:08;;;;;;;3.73;1.47;;;;;;;;;;5045318;28;20268;-67
2021/03/22 08:55:56;;;;;;;2.40;1.20;;;;;;;;;;5039521;28;20185;-66
2021/03/22 08:58:30;;;;;;;5.43;2.00;;;;;;;;;;5043899;28;20429;-67
2021/03/22 09:00:56;;;;;;;4.47;1.60;;;;;;;;;;5037995;28;20322;-67
2021/03/22 09:03:30;;;;;;;4.03;1.20;;;;;;;;;;5044498;28;20268;-67
2021/03/22 09:06:07;;;;;;;4.50;1.70;;;;;;;;;;5050147;28;20192;-65
2021/03/22 09:08:34;;;;;;;3.87;1.50;;;;;;;;;;5040447;28;20215;-67
2021/03/22 09:11:16;;;;;;;4.97;1.77;;;;;;;;;;5043739;28;20202;-68
2021/03/22 09:14:00;;;;;;;2.27;1.37;;;;;;;;;;5047369;28;20228;-67
2021/03/22 09:16:25;;;;;;;8.90;1.77;;;;;;;;;;5030069;28;20212;-68
2021/03/22 09:19:03;;;;;;;4.70;1.60;;;;;;;;;;5027050;28;20289;-68
2021/03/22 09:21:28;;;;;;;2.37;1.33;;;;;;;;;;5027097;28;20185;-67
2021/03/22 09:23:53;;;;;;;3.73;0.90;;;;;;;;;;5028081;28;20190;-68
2021/03/22 09:26:38;;;;;;;3.27;1.13;;;;;;;;;;5027080;28;20272;-68
2021/03/22 09:29:22;;;;;;;2.43;1.10;;;;;;;;;;5024019;28;20205;-66
2021/03/22 09:31:48;;;;;;;3.57;1.30;;;;;;;;;;5032917;28;20188;-68
2021/03/22 09:34:16;;;;;;;3.40;1.50;;;;;;;;;;5027804;28;20173;-69
2021/03/22 09:36:42;;;;;;;4.03;2.00;;;;;;;;;;5030150;28;20177;-67
2021/03/22 09:39:13;;;;;;;3.87;2.00;;;;;;;;;;5028041;28;20186;-66
2021/03/22 09:41:57;;;;;;;6.50;1.80;;;;;;;;;;5027780;28;20663;-67
2021/03/22 09:44:24;;;;;;;5.67;2.10;;;;;;;;;;5029588;28;20276;-69
2021/03/22 09:47:15;;;;;;;2.42;1.40;;;;;;;;;;5029696;28;20227;-67
2021/03/22 09:50:02;;;;;;;3.92;1.40;;;;;;;;;;5028501;28;20690;-67
2021/03/22 09:52:29;;;;;;;5.00;1.40;;;;;;;;;;5031859;28;20181;-68
2021/03/22 09:54:55;;;;;;;2.50;1.40;;;;;;;;;;5034181;28;20682;-66
2021/03/22 09:57:20;;;;;;;2.40;1.13;;;;;;;;;;5033711;28;20209;-66
2021/03/22 10:00:04;;;;;;;2.70;1.20;;;;;;;;;;5031696;28;20666;-67
2021/03/22 10:02:29;;;;;;;4.93;1.53;;;;;;;;;;5031659;28;20464;-69
2021/03/22 10:05:04;;;;;;;2.90;1.53;;;;;;;;;;5036153;28;20170;-69
2021/03/22 10:07:35;;;;;;;3.53;1.20;;;;;;;;;;5034007;28;20181;-68
2021/03/22 10:10:04;;;;;;;2.33;0.93;;;;;;;;;;5031946;28;20223;-66
2021/03/22 10:12:30;;;;;;;4.43;1.20;;;;;;;;;;5029042;28;20213;-66
2021/03/22 10:15:13;;;;;;;2.70;0.80;;;;;;;;;;5030092;28;20298;-69
2021/03/22 10:17:57;;;;;;;4.00;2.27;;;;;;;;;;5029607;28;20424;-68
2021/03/22 10:20:37;;;;;;;5.20;1.43;;;;;;;;;;5028074;28;20206;-65
2021/03/22 10:23:04;;;;;;;4.27;1.10;;;;;;;;;;5028827;28;20204;-65
2021/03/22 10:25:31;;;;;;;1.40;0.90;;;;;;;;;;5032050;28;20312;-66
2021/03/22 10:28:03;;;;;;;2.53;1.07;;;;;;;;;;5029857;28;20192;-66
2021/03/22 10:30:28;;;;;;;7.10;1.53;;;;;;;;;;5029067;28;20218;-65
2021/03/22 10:33:01;;;;;;;2.27;1.07;;;;;;;;;;5036470;28;20198;-66
2021/03/22 10:35:47;;;;;;;2.80;0.93;;;;;;;;;;5031276;28;21006;-68
2021/03/22 10:38:26;;;;;;;2.27;1.10;;;;;;;;;;5034004;28;20185;-66
2021/03/22 10:40:52;;;;;;;3.20;1.20;;;;;;;;;;5030621;28;20299;-65
2021/03/22 10:43:30;;;;;;;3.27;1.10;;;;;;;;;;5031182;28;20178;-68
2021/03/22 10:45:57;;;;;;;5.93;1.13;;;;;;;;;;5030535;28;20193;-68
2021/03/22 10:48:25;;;;;;;2.77;1.10;;;;;;;;;;5032480;28;20869;-69
2021/03/22 10:51:00;;;;;;;2.70;1.50;;;;;;;;;;5031744;28;20576;-67
2021/03/22 10:53:25;;;;;;;1.67;1.40;;;;;;;;;;5032644;28;20221;-68
2021/03/22 10:55:51;;;;;;;3.03;1.70;;;;;;;;;;5030306;28;20316;-67
2021/03/22 10:58:22;;;;;;;2.27;1.57;;;;;;;;;;5033657;28;20194;-67
2021/03/22 11:00:47;;;;;;;2.57;1.50;;;;;;;;;;5030878;28;20217;-67
2021/03/22 11:03:19;;;;;;;3.00;1.27;;;;;;;;;;5028332;28;20654;-68
2021/03/22 11:05:45;;;;;;;2.50;1.37;;;;;;;;;;5032549;28;20510;-67
2021/03/22 11:08:30;;;;;;;4.67;1.33;;;;;;;;;;5034276;28;20182;-67
2021/03/22 11:10:59;;;;;;;2.53;1.43;;;;;;;;;;5028621;28;20235;-68
2021/03/22 11:13:27;;;;;;;3.53;2.30;;;;;;;;;;5027130;28;20178;-68
2021/03/22 11:15:52;;;;;;;1.87;1.13;;;;;;;;;;5029380;28;20698;-66
2021/03/22 11:18:18;;;;;;;2.37;1.30;;;;;;;;;;5029280;28;20174;-68
2021/03/22 11:20:44;;;;;;;2.20;1.70;;;;;;;;;;5027308;28;20205;-67
2021/03/22 11:23:14;;;;;;;2.80;1.70;;;;;;;;;;5031626;28;20182;-67
2021/03/22 11:25:39;;;;;;;2.90;2.33;;;;;;;;;;5028109;28;21321;-68
2021/03/22 11:28:19;;;;;;;1.73;1.60;;;;;;;;;;5033178;28;20812;-66
2021/03/22 11:31:05;;;;;;;2.57;2.20;;;;;;;;;;5026716;28;20215;-67
2021/03/22 11:33:31;;;;;;;2.70;1.90;;;;;;;;;;5030830;28;20687;-66
2021/03/22 11:36:02;;;;;;;2.73;1.83;;;;;;;;;;5027375;28;20180;-68
2021/03/22 11:38:36;;;;;;;2.33;1.77;;;;;;;;;;5032363;28;20173;-66
2021/03/22 11:41:02;;;;;;;3.30;1.67;;;;;;;;;;5028642;28;20206;-67
2021/03/22 11:43:30;;;;;;;5.80;2.40;;;;;;;;;;5029981;28;20205;-68
2021/03/22 11:45:56;;;;;;;2.47;1.90;;;;;;;;;;5032577;28;20184;-67
2021/03/22 11:48:21;;;;;;;3.70;1.73;;;;;;;;;;5026361;28;20178;-68
2021/03/22 11:50:47;;;;;;;2.25;1.60;;;;;;;;;;5030916;28;20223;-68
2021/03/22 11:53:17;;;;;;;4.17;2.83;;;;;;;;;;5027782;28;20705;-67
2021/03/22 11:55:44;;;;;;;3.67;2.43;;;;;;;;;;5031538;28;22379;-68
2021/03/22 11:58:24;;;;;;;3.07;2.77;;;;;;;;;;5032246;28;20923;-67
2021/03/22 12:00:50;;;;;;;2.40;2.20;;;;;;;;;;5031310;28;20300;-68
2021/03/22 12:03:41;;;;;;;2.83;2.00;;;;;;;;;;5028164;28;20179;-68
2021/03/22 12:06:08;;;;;;;5.20;2.20;;;;;;;;;;5029942;28;20190;-68
2021/03/22 12:08:49;;;;;;;4.23;1.97;;;;;;;;;;5038416;28;20196;-66
2021/03/22 12:11:17;;;;;;;2.93;1.80;;;;;;;;;;5025756;28;20209;-67
2021/03/22 12:13:42;;;;;;;3.03;1.53;;;;;;;;;;5027704;28;20229;-66
2021/03/22 12:16:09;;;;;;;2.60;1.77;;;;;;;;;;5028052;28;20273;-67
2021/03/22 12:18:37;;;;;;;5.17;2.40;;;;;;;;;;5029036;28;21512;-66
2021/03/22 12:21:04;;;;;;;2.70;1.57;;;;;;;;;;5029666;28;20201;-67
2021/03/22 12:23:29;;;;;;;2.30;1.90;;;;;;;;;;5033966;28;20193;-68
2021/03/22 12:25:55;;;;;;;7.77;2.20;;;;;;;;;;5028988;28;20189;-68
2021/03/22 12:28:20;;;;;;;3.63;1.93;;;;;;;;;;5030429;28;20190;-67
2021/03/22 12:30:45;;;;;;;3.40;2.17;;;;;;;;;;5028823;28;20210;-68
2021/03/22 12:33:21;;;;;;;3.23;1.87;;;;;;;;;;5031791;28;20193;-68
2021/03/22 12:35:47;;;;;;;3.13;1.77;;;;;;;;;;5029564;28;20216;-67
2021/03/22 12:38:12;;;;;;;2.27;1.60;;;;;;;;;;5033779;28;20210;-68
2021/03/22 12:40:38;;;;;;;3.37;1.83;;;;;;;;;;5025482;28;20685;-68
2021/03/22 12:43:03;;;;;;;2.87;2.20;;;;;;;;;;5029188;28;20242;-67
2021/03/22 12:45:31;;;;;;;6.17;2.53;;;;;;;;;;5027262;28;20224;-66
2021/03/22 12:47:56;;;;;;;3.00;1.70;;;;;;;;;;5026330;28;20256;-67
2021/03/22 12:50:23;;;;;;;4.67;1.40;;;;;;;;;;5026981;28;20224;-67
2021/03/22 12:52:49;;;;;;;2.93;1.20;;;;;;;;;;5032573;28;20239;-67
2021/03/22 12:55:14;;;;;;;2.73;1.10;;;;;;;;;;5028104;28;20182;-66
2021/03/22 12:57:40;;;;;;;2.67;1.60;;;;;;;;;;5031085;28;20287;-66
2021/03/22 13:00:05;;;;;;;2.00;1.80;;;;;;;;;;5028818;28;20697;-66
2021/03/22 13:02:32;;;;;;;1.47;1.33;;;;;;;;;;5027614;28;20188;-67
2021/03/22 13:04:58;;;;;;;2.90;1.63;;;;;;;;;;5029430;28;20186;-67
2021/03/22 13:07:23;;;;;;;3.17;1.93;;;;;;;;;;5030842;28;20200;-67
2021/03/22 13:09:48;;;;;;;2.83;2.17;;;;;;;;;;5033265;28;20796;-68
2021/03/22 13:12:17;;;;;;;2.53;1.93;;;;;;;;;;5026723;28;20178;-67
2021/03/22 13:14:42;;;;;;;3.73;2.20;;;;;;;;;;5027362;28;20217;-67
2021/03/22 13:17:10;;;;;;;3.90;1.97;;;;;;;;;;5030252;28;20554;-68
2021/03/22 13:19:35;;;;;;;2.93;1.90;;;;;;;;;;5026221;28;20194;-68
2021/03/22 13:22:01;;;;;;;2.97;1.77;;;;;;;;;;5029405;28;20199;-68
2021/03/22 13:24:26;;;;;;;3.57;2.00;;;;;;;;;;5029987;28;20667;-68
2021/03/22 13:26:51;;;;;;;3.83;2.03;;;;;;;;;;5027908;28;20196;-67
2021/03/22 13:29:16;;;;;;;3.03;1.80;;;;;;;;;;5030646;28;20745;-67
2021/03/22 13:31:42;;;;;;;3.97;2.30;;;;;;;;;;5030895;28;20182;-67
2021/03/22 13:34:08;;;;;;;5.10;1.90;;;;;;;;;;5036026;28;20182;-67
2021/03/22 13:36:33;;;;;;;3.30;1.70;;;;;;;;;;5032315;28;20655;-68
2021/03/22 13:38:59;;;;;;;2.30;1.70;;;;;;;;;;5036170;28;20181;-68
2021/03/22 13:41:27;;;;;;;2.40;2.13;;;;;;;;;;5030450;28;20258;-68
2021/03/22 13:43:52;;;;;;;2.00;1.80;;;;;;;;;;5036161;28;20239;-66
2021/03/22 13:46:18;;;;;;;3.00;1.73;;;;;;;;;;5032167;28;20177;-67
2021/03/22 13:48:43;;;;;;;3.30;1.77;;;;;;;;;;5037360;28;20235;-66
2021/03/22 13:51:13;;;;;;;2.33;1.43;;;;;;;;;;5035086;28;20197;-68
2021/03/22 13:53:38;;;;;;;2.23;1.17;;;;;;;;;;5032560;28;20208;-68
2021/03/22 13:56:03;;;;;;;2.43;1.00;;;;;;;;;;5036125;28;20688;-68
2021/03/22 13:58:30;;;;;;;2.63;1.10;;;;;;;;;;5030590;28;20189;-66
2021/03/22 14:00:56;;;;;;;1.93;1.20;;;;;;;;;;5031263;28;20347;-66
2021/03/22 14:03:21;;;;;;;1.27;1.00;;;;;;;;;;5035825;28;20276;-67
2021/03/22 14:05:47;;;;;;;1.80;1.30;;;;;;;;;;5031342;28;20540;-68
2021/03/22 14:08:12;;;;;;;1.80;0.80;;;;;;;;;;5037642;28;20183;-67
2021/03/22 14:10:37;;;;;;;1.63;0.80;;;;;;;;;;5030637;28;20590;-66
2021/03/22 14:13:02;;;;;;;2.67;0.90;;;;;;;;;;5031740;28;20280;-68
2021/03/22 14:15:29;;;;;;;1.40;1.07;;;;;;;;;;5034046;28;20682;-68
2021/03/22 14:17:55;;;;;;;3.20;1.00;;;;;;;;;;5030812;28;20181;-67
2021/03/22 14:20:20;;;;;;;1.73;0.90;;;;;;;;;;5031809;28;20197;-67
2021/03/22 14:22:46;;;;;;;3.20;0.97;;;;;;;;;;5031272;28;20190;-66
2021/03/22 14:25:12;;;;;;;1.67;0.80;;;;;;;;;;5030364;28;20185;-66
2021/03/22 14:27:37;;;;;;;2.40;0.80;;;;;;;;;;5030975;28;20194;-66
2021/03/22 14:30:03;;;;;;;1.50;0.90;;;;;;;;;;5033836;28;20202;-68
2021/03/22 14:32:28;;;;;;;2.87;0.90;;;;;;;;;;5032145;28;20190;-67
2021/03/22 14:34:54;;;;;;;1.33;0.77;;;;;;;;;;5033264;28;20621;-67
2021/03/22 14:37:19;;;;;;;3.63;1.00;;;;;;;;;;5030483;28;20192;-67
2021/03/22 14:39:44;;;;;;;0.87;0.77;;;;;;;;;;5034373;28;20629;-66
2021/03/22 14:42:09;;;;;;;1.07;0.70;;;;;;;;;;5029621;28;20190;-68
2021/03/22 14:44:34;;;;;;;2.67;0.67;;;;;;;;;;5031828;28;20184;-67
2021/03/22 14:46:59;;;;;;;2.93;1.00;;;;;;;;;;5027722;28;20183;-68